createdAt,value
2019-04-03T00:01:54.950Z,11.10
2019-04-03T00:04:24.498Z,11.10
2019-04-03T00:06:54.187Z,10.90
2019-04-03T00:09:23.680Z,10.80
2019-04-03T00:11:53.142Z,10.80
2019-04-03T00:14:22.969Z,10.60
2019-04-03T00:16:52.594Z,10.50
2019-04-03T00:19:21.984Z,10.50
2019-04-03T00:21:51.322Z,10.40
2019-04-03T00:24:22.536Z,10.50
2019-04-03T00:26:52.842Z,10.40
2019-04-03T00:29:22.922Z,10.50
2019-04-03T00:31:53.706Z,10.70
2019-04-03T00:34:23.948Z,10.80
2019-04-03T00:36:53.713Z,11.00
2019-04-03T00:39:24.342Z,11.30
2019-04-03T00:41:55.058Z,11.40
2019-04-03T00:44:25.111Z,11.50
2019-04-03T00:46:55.769Z,11.60
2019-04-03T00:49:26.478Z,11.70
2019-04-03T00:51:57.507Z,11.80
2019-04-03T00:54:27.498Z,11.70
2019-04-03T00:56:57.059Z,11.80
2019-04-03T00:59:26.891Z,11.70
2019-04-03T01:01:57.057Z,11.60
2019-04-03T01:04:28.427Z,11.60
2019-04-03T01:06:58.648Z,11.60
2019-04-03T01:09:29.853Z,11.60
2019-04-03T01:12:00.856Z,11.60
2019-04-03T01:14:31.507Z,11.60
2019-04-03T01:17:03.475Z,11.50
2019-04-03T01:19:36.136Z,11.50
2019-04-03T01:22:05.665Z,11.50
2019-04-03T01:24:36.713Z,11.40
2019-04-03T01:27:06.882Z,11.40
2019-04-03T01:29:36.398Z,11.40
2019-04-03T01:32:05.948Z,11.40
2019-04-03T01:34:35.580Z,11.40
2019-04-03T01:37:05.062Z,11.40
2019-04-03T01:39:35.030Z,11.40
2019-04-03T01:42:04.467Z,11.30
2019-04-03T01:44:34.015Z,11.20
2019-04-03T01:47:03.391Z,11.20
2019-04-03T01:49:32.835Z,11.20
2019-04-03T01:52:02.287Z,11.20
2019-04-03T01:54:33.716Z,11.30
2019-04-03T01:57:06.134Z,11.20
2019-04-03T01:59:35.752Z,11.10
2019-04-03T02:02:08.179Z,11.00
2019-04-03T02:04:36.792Z,11.10
2019-04-03T02:07:06.603Z,10.90
2019-04-03T02:09:36.273Z,10.90
2019-04-03T02:12:05.671Z,10.80
2019-04-03T02:14:35.098Z,10.80
2019-04-03T02:17:04.747Z,10.70
2019-04-03T02:19:34.112Z,10.80
2019-04-03T02:22:03.692Z,10.80
2019-04-03T02:24:33.376Z,10.60
2019-04-03T02:27:03.494Z,10.60
2019-04-03T02:29:33.194Z,10.60
2019-04-03T02:32:02.833Z,10.50
2019-04-03T02:34:34.660Z,10.50
2019-04-03T02:37:03.785Z,10.50
2019-04-03T02:39:33.564Z,10.40
2019-04-03T02:42:03.038Z,10.30
2019-04-03T02:44:32.589Z,10.10
2019-04-03T02:47:02.070Z,10.10
2019-04-03T02:49:31.896Z,10.00
2019-04-03T02:52:01.510Z,9.80
2019-04-03T02:54:34.823Z,9.80
2019-04-03T02:57:03.177Z,9.70
2019-04-03T02:59:32.677Z,9.70
2019-04-03T03:02:02.686Z,9.70
2019-04-03T03:04:32.152Z,9.60
2019-04-03T03:07:04.824Z,9.60
2019-04-03T03:09:34.333Z,9.70
2019-04-03T03:12:04.061Z,9.60
2019-04-03T03:14:34.085Z,9.60
2019-04-03T03:17:04.032Z,9.70
2019-04-03T03:19:33.964Z,9.60
2019-04-03T03:22:04.702Z,9.60
2019-04-03T03:24:35.321Z,9.60
2019-04-03T03:27:08.140Z,9.60
2019-04-03T03:29:36.684Z,9.50
2019-04-03T03:32:15.017Z,9.40
2019-04-03T03:34:55.553Z,9.30
2019-04-03T03:37:12.190Z,9.30
2019-04-03T03:39:43.570Z,9.40
2019-04-03T03:42:14.171Z,9.40
2019-04-03T03:44:46.129Z,9.30
2019-04-03T03:47:15.897Z,9.40
2019-04-03T03:49:48.603Z,9.40
2019-04-03T03:52:17.047Z,9.30
2019-04-03T03:54:49.571Z,9.20
2019-04-03T03:57:18.154Z,9.30
2019-04-03T03:59:51.121Z,9.40
2019-04-03T04:02:20.819Z,9.40
2019-04-03T04:04:50.592Z,9.30
2019-04-03T04:07:20.181Z,9.20
2019-04-03T04:09:51.863Z,9.00
2019-04-03T04:12:22.187Z,9.00
2019-04-03T04:14:54.894Z,8.90
2019-04-03T04:17:23.271Z,9.10
2019-04-03T04:19:53.320Z,8.90
2019-04-03T04:22:26.708Z,8.80
2019-04-03T04:24:54.810Z,8.70
2019-04-03T04:27:24.694Z,8.50
2019-04-03T04:29:55.149Z,8.50
2019-04-03T04:32:24.643Z,8.50
2019-04-03T04:34:54.180Z,8.60
2019-04-03T04:37:26.038Z,8.60
2019-04-03T04:39:54.959Z,8.60
2019-04-03T04:42:24.490Z,8.90
2019-04-03T04:44:53.857Z,8.80
2019-04-03T04:47:23.473Z,8.80
2019-04-03T04:49:53.701Z,9.00
2019-04-03T04:52:23.833Z,9.00
2019-04-03T04:54:53.339Z,9.00
2019-04-03T04:57:22.722Z,8.80
2019-04-03T04:59:52.176Z,8.80
2019-04-03T05:02:21.872Z,8.80
2019-04-03T05:04:51.945Z,8.70
2019-04-03T05:07:21.793Z,8.70
2019-04-03T05:09:51.318Z,8.70
2019-04-03T05:12:21.019Z,8.70
2019-04-03T05:14:50.838Z,8.60
2019-04-03T05:17:20.749Z,8.60
2019-04-03T05:19:50.680Z,8.60
2019-04-03T05:22:19.970Z,8.70
2019-04-03T05:24:49.477Z,8.70
2019-04-03T05:27:19.014Z,8.70
2019-04-03T05:29:48.604Z,8.70
2019-04-03T05:32:18.024Z,8.70
2019-04-03T05:34:47.642Z,8.70
2019-04-03T05:37:20.168Z,8.80
2019-04-03T05:39:49.827Z,8.80
2019-04-03T05:42:19.320Z,8.70
2019-04-03T05:44:48.852Z,8.70
2019-04-03T05:47:18.666Z,8.70
2019-04-03T05:49:50.570Z,8.80
2019-04-03T05:52:19.397Z,8.80
2019-04-03T05:54:48.873Z,8.70
2019-04-03T05:57:18.483Z,8.60
2019-04-03T05:59:59.130Z,8.80
2019-04-03T06:02:21.375Z,8.70
2019-04-03T06:04:50.709Z,8.70
2019-04-03T06:07:20.077Z,8.60
2019-04-03T06:09:49.555Z,8.60
2019-04-03T06:12:19.379Z,8.50
2019-04-03T06:14:50.264Z,8.60
2019-04-03T06:17:20.809Z,8.50
2019-04-03T06:19:50.203Z,8.70
2019-04-03T06:22:21.611Z,8.70
2019-04-03T06:24:51.240Z,8.80
2019-04-03T06:27:21.092Z,8.70
2019-04-03T06:29:53.448Z,8.60
2019-04-03T06:32:24.412Z,8.60
2019-04-03T06:34:53.285Z,8.50
2019-04-03T06:37:22.863Z,8.60
2019-04-03T06:39:52.239Z,8.80
2019-04-03T06:42:22.175Z,8.90
2019-04-03T06:44:53.605Z,8.90
2019-04-03T06:47:23.018Z,8.90
2019-04-03T06:49:52.506Z,9.00
2019-04-03T06:52:22.160Z,9.10
2019-04-03T06:54:51.672Z,9.20
2019-04-03T06:57:21.459Z,9.50
2019-04-03T06:59:51.184Z,9.70
2019-04-03T07:02:21.448Z,9.80
2019-04-03T07:04:51.289Z,10.00
2019-04-03T07:07:32.619Z,9.90
2019-04-03T07:09:52.813Z,9.80
2019-04-03T07:12:22.507Z,9.70
2019-04-03T07:14:52.163Z,9.60
2019-04-03T07:17:21.955Z,9.70
2019-04-03T07:19:51.331Z,9.70
2019-04-03T07:22:21.084Z,9.90
2019-04-03T07:24:50.453Z,9.80
2019-04-03T07:27:20.152Z,9.70
2019-04-03T07:29:49.815Z,9.60
2019-04-03T07:32:19.470Z,9.70
2019-04-03T07:34:49.145Z,9.70
2019-04-03T07:37:19.961Z,9.70
2019-04-03T07:39:50.598Z,9.70
2019-04-03T07:42:20.038Z,9.70
2019-04-03T07:44:49.606Z,9.60
2019-04-03T07:47:18.964Z,9.50
2019-04-03T07:49:48.466Z,9.60
2019-04-03T07:52:17.943Z,9.70
2019-04-03T07:54:48.473Z,9.60
2019-04-03T07:57:18.132Z,9.70
2019-04-03T07:59:47.650Z,9.70
2019-04-03T08:02:17.166Z,9.60
2019-04-03T08:04:47.059Z,9.60
2019-04-03T08:07:16.622Z,9.70
2019-04-03T08:09:45.990Z,9.70
2019-04-03T08:12:17.518Z,9.60
2019-04-03T08:14:46.811Z,9.70
2019-04-03T08:17:18.101Z,9.80
2019-04-03T08:19:47.678Z,10.00
2019-04-03T08:22:17.171Z,10.10
2019-04-03T08:24:46.856Z,10.20
2019-04-03T08:27:16.458Z,10.30
2019-04-03T08:29:46.535Z,10.40
2019-04-03T08:32:16.979Z,10.60
2019-04-03T08:34:46.520Z,10.60
2019-04-03T08:37:22.978Z,10.60
2019-04-03T08:39:49.162Z,10.50
2019-04-03T08:42:18.484Z,10.50
2019-04-03T08:44:48.081Z,10.60
2019-04-03T08:47:17.722Z,10.60
2019-04-03T08:49:47.280Z,10.70
2019-04-03T08:52:16.858Z,10.70
2019-04-03T08:54:46.497Z,10.90
2019-04-03T08:57:16.223Z,10.80
2019-04-03T08:59:45.697Z,10.80
2019-04-03T09:02:15.485Z,10.80
2019-04-03T09:04:45.952Z,10.70
2019-04-03T09:07:16.271Z,10.90
2019-04-03T09:09:45.647Z,11.20
2019-04-03T09:12:15.444Z,11.40
2019-04-03T09:14:45.234Z,11.60
2019-04-03T09:17:35.444Z,11.50
2019-04-03T09:20:06.848Z,11.60
2019-04-03T09:22:36.565Z,11.50
2019-04-03T09:25:06.765Z,11.50
2019-04-03T09:27:37.736Z,11.50
2019-04-03T09:30:10.652Z,11.50
2019-04-03T09:32:40.194Z,11.70
2019-04-03T09:35:09.965Z,11.70
2019-04-03T09:37:39.419Z,12.00
2019-04-03T09:40:09.355Z,12.20
2019-04-03T09:42:39.032Z,12.00
2019-04-03T09:45:09.295Z,11.90
2019-04-03T09:47:38.772Z,11.90
2019-04-03T09:50:09.152Z,12.10
2019-04-03T09:52:46.130Z,12.30
2019-04-03T09:55:09.826Z,12.30
2019-04-03T09:57:41.233Z,12.30
2019-04-03T10:00:12.512Z,12.60
2019-04-03T10:02:42.227Z,12.70
2019-04-03T10:05:12.661Z,12.90
2019-04-03T10:07:42.052Z,13.10
2019-04-03T10:10:11.973Z,13.50
2019-04-03T10:12:43.978Z,13.30
2019-04-03T10:15:13.405Z,13.50
2019-04-03T10:17:43.221Z,13.40
2019-04-03T10:20:13.248Z,13.50
2019-04-03T10:22:42.747Z,13.60
2019-04-03T10:25:12.581Z,13.30
2019-04-03T10:27:43.730Z,13.20
2019-04-03T10:30:14.466Z,13.20
2019-04-03T10:32:43.934Z,13.30
2019-04-03T10:35:14.255Z,13.40
2019-04-03T10:37:46.127Z,13.50
2019-04-03T10:40:15.664Z,13.50
2019-04-03T10:42:45.106Z,13.70
2019-04-03T10:45:14.951Z,13.90
2019-04-03T10:47:44.918Z,14.00
2019-04-03T10:50:15.066Z,14.20
2019-04-03T10:52:47.691Z,14.30
2019-04-03T10:55:15.907Z,14.10
2019-04-03T10:57:45.570Z,14.00
2019-04-03T11:00:15.835Z,14.10
2019-04-03T11:02:45.338Z,14.10
2019-04-03T11:05:16.157Z,14.30
2019-04-03T11:07:45.874Z,14.70
2019-04-03T11:10:15.871Z,14.50
2019-04-03T11:12:45.392Z,14.60
2019-04-03T11:15:15.809Z,14.80
2019-04-03T11:17:48.489Z,14.80
2019-04-03T11:20:16.938Z,14.80
2019-04-03T11:22:48.313Z,14.70
2019-04-03T11:25:18.294Z,14.60
2019-04-03T11:27:47.937Z,14.80
2019-04-03T11:30:21.997Z,14.80
2019-04-03T11:32:49.847Z,14.70
2019-04-03T11:35:22.061Z,14.60
2019-04-03T11:37:50.682Z,14.30
2019-04-03T11:40:20.620Z,14.40
2019-04-03T11:42:50.195Z,14.90
2019-04-03T11:45:20.127Z,14.90
2019-04-03T11:47:50.151Z,14.60
2019-04-03T11:50:23.470Z,14.70
2019-04-03T11:52:53.151Z,14.50
2019-04-03T11:55:22.681Z,14.30
2019-04-03T11:57:52.092Z,13.90
2019-04-03T12:00:26.786Z,13.80
2019-04-03T12:02:56.703Z,13.60
2019-04-03T12:05:26.301Z,13.50
2019-04-03T12:07:57.548Z,13.40
2019-04-03T12:10:27.145Z,13.30
2019-04-03T12:12:57.150Z,12.90
2019-04-03T12:15:26.944Z,12.90
2019-04-03T12:17:56.574Z,12.90
2019-04-03T12:20:26.158Z,13.00
2019-04-03T12:22:55.955Z,13.00
2019-04-03T12:25:25.530Z,13.00
2019-04-03T12:27:55.687Z,13.00
2019-04-03T12:30:26.826Z,13.00
2019-04-03T12:32:56.748Z,13.00
2019-04-03T12:35:27.219Z,12.90
2019-04-03T12:37:57.224Z,13.00
2019-04-03T12:40:27.023Z,13.10
2019-04-03T12:42:56.754Z,13.10
2019-04-03T12:45:26.873Z,13.10
2019-04-03T12:47:57.095Z,13.10
2019-04-03T12:50:27.548Z,13.00
2019-04-03T12:52:58.266Z,12.50
2019-04-03T12:55:28.010Z,11.90
2019-04-03T12:57:58.254Z,11.50
2019-04-03T13:00:27.990Z,11.10
2019-04-03T13:02:58.021Z,11.10
2019-04-03T13:05:27.607Z,11.00
2019-04-03T13:07:59.661Z,11.00
2019-04-03T13:10:40.123Z,11.50
2019-04-03T13:12:59.848Z,11.80
2019-04-03T13:15:29.586Z,11.90
2019-04-03T13:17:59.158Z,11.90
2019-04-03T13:20:28.946Z,11.70
2019-04-03T13:22:58.635Z,11.40
2019-04-03T13:25:28.140Z,11.20
2019-04-03T13:28:02.840Z,11.00
2019-04-03T13:30:31.658Z,10.80
2019-04-03T13:33:05.761Z,10.70
2019-04-03T13:35:33.121Z,10.60
2019-04-03T13:38:02.724Z,10.60
2019-04-03T13:40:32.961Z,10.70
2019-04-03T13:43:02.904Z,10.60
2019-04-03T13:45:32.651Z,10.70
2019-04-03T13:48:02.408Z,10.70
2019-04-03T13:50:32.031Z,10.60
2019-04-03T13:53:01.710Z,10.50
2019-04-03T13:55:35.047Z,10.40
2019-04-03T13:58:02.748Z,10.40
2019-04-03T14:00:33.248Z,10.10
2019-04-03T14:03:03.807Z,9.80
2019-04-03T14:05:33.783Z,9.70
2019-04-03T14:08:06.431Z,9.50
2019-04-03T14:10:35.351Z,9.10
2019-04-03T14:13:04.959Z,8.70
2019-04-03T14:15:34.462Z,8.40
2019-04-03T14:18:03.933Z,8.20
2019-04-03T14:20:33.475Z,8.30
2019-04-03T14:23:03.910Z,8.40
2019-04-03T14:25:37.127Z,8.50
2019-04-03T14:28:05.068Z,8.40
2019-04-03T14:30:34.677Z,8.30
2019-04-03T14:33:04.314Z,8.30
2019-04-03T14:35:48.109Z,8.20
2019-04-03T14:38:05.447Z,8.20
2019-04-03T14:40:35.116Z,8.00
2019-04-03T14:43:05.155Z,7.70
2019-04-03T14:45:34.788Z,7.40
2019-04-03T14:48:04.403Z,7.30
2019-04-03T14:50:36.486Z,7.10
2019-04-03T14:53:05.926Z,6.90
2019-04-03T14:55:46.261Z,6.50
2019-04-03T14:58:06.956Z,6.10
2019-04-03T15:00:36.915Z,5.90
2019-04-03T15:03:06.875Z,6.00
2019-04-03T15:05:39.288Z,6.10
2019-04-03T15:08:08.161Z,6.10
2019-04-03T15:10:38.255Z,6.10
2019-04-03T15:13:08.055Z,6.30
2019-04-03T15:15:37.697Z,6.10
2019-04-03T15:18:10.156Z,6.10
2019-04-03T15:20:38.679Z,6.00
2019-04-03T15:23:08.752Z,5.80
2019-04-03T15:25:38.502Z,5.60
2019-04-03T15:28:08.302Z,5.50
2019-04-03T15:30:37.747Z,5.40
2019-04-03T15:33:09.048Z,5.40
2019-04-03T15:35:39.240Z,5.30
2019-04-03T15:38:09.015Z,5.30
2019-04-03T15:40:38.624Z,5.20
2019-04-03T15:43:10.768Z,5.50
2019-04-03T15:45:40.005Z,5.50
2019-04-03T15:48:10.292Z,5.40
2019-04-03T15:50:40.007Z,5.50
2019-04-03T15:53:15.873Z,5.50
2019-04-03T15:55:45.632Z,5.30
2019-04-03T15:58:15.373Z,5.10
2019-04-03T16:00:56.140Z,5.00
2019-04-03T16:03:27.457Z,5.00
2019-04-03T16:05:58.014Z,4.80
2019-04-03T16:08:28.732Z,4.70
2019-04-03T16:11:00.718Z,4.80
2019-04-03T16:13:32.819Z,4.80
2019-04-03T16:16:02.766Z,4.80
2019-04-03T16:18:33.923Z,4.80
2019-04-03T16:21:03.842Z,4.80
2019-04-03T16:23:34.272Z,4.90
2019-04-03T16:26:05.600Z,4.90
2019-04-03T16:28:35.764Z,5.00
2019-04-03T16:31:06.244Z,5.00
2019-04-03T16:33:37.423Z,5.00
2019-04-03T16:36:07.478Z,5.10
2019-04-03T16:38:37.166Z,5.10
2019-04-03T16:41:07.899Z,5.00
2019-04-03T16:43:39.173Z,5.10
2019-04-03T16:46:11.349Z,5.00
2019-04-03T16:48:41.136Z,5.00
2019-04-03T16:51:11.246Z,5.10
2019-04-03T16:53:40.973Z,5.10
2019-04-03T16:56:11.791Z,5.30
2019-04-03T16:58:41.818Z,5.40
2019-04-03T17:01:13.668Z,5.60
2019-04-03T17:03:43.358Z,5.70
2019-04-03T17:06:15.778Z,5.70
2019-04-03T17:08:45.331Z,5.60
2019-04-03T17:11:15.671Z,5.50
2019-04-03T17:13:46.330Z,5.40
2019-04-03T17:16:16.605Z,5.30
2019-04-03T17:18:47.431Z,5.30
2019-04-03T17:21:17.812Z,5.40
2019-04-03T17:23:47.487Z,5.30
2019-04-03T17:26:17.286Z,5.30
2019-04-03T17:28:47.154Z,5.30
2019-04-03T17:31:16.950Z,5.30
2019-04-03T17:33:47.306Z,5.30
2019-04-03T17:36:19.789Z,5.20
2019-04-03T17:38:50.272Z,5.20
2019-04-03T17:41:19.919Z,5.30
2019-04-03T17:43:49.398Z,5.50
2019-04-03T17:46:18.920Z,5.40
2019-04-03T17:48:49.113Z,5.40
2019-04-03T17:51:19.234Z,5.30
2019-04-03T17:53:48.810Z,5.40
2019-04-03T17:56:18.808Z,5.50
2019-04-03T17:58:48.929Z,5.70
2019-04-03T18:01:22.160Z,5.70
2019-04-03T18:03:51.584Z,5.70
2019-04-03T18:06:21.787Z,5.70
2019-04-03T18:08:52.033Z,5.70
2019-04-03T18:11:21.976Z,5.70
2019-04-03T18:13:54.648Z,5.70
2019-04-03T18:16:24.689Z,5.80
2019-04-03T18:18:54.815Z,5.60
2019-04-03T18:21:24.468Z,5.70
2019-04-03T18:23:54.500Z,5.60
2019-04-03T18:26:24.687Z,5.60
2019-04-03T18:28:55.767Z,5.50
2019-04-03T18:31:25.769Z,5.50
2019-04-03T18:33:55.731Z,5.60
2019-04-03T18:36:28.436Z,5.70
2019-04-03T18:38:57.629Z,5.50
2019-04-03T18:41:27.609Z,5.40
2019-04-03T18:43:57.223Z,5.50
2019-04-03T18:46:32.349Z,5.50
2019-04-03T18:49:01.626Z,5.30
2019-04-03T18:51:30.387Z,5.10
2019-04-03T18:54:00.758Z,5.00
2019-04-03T18:56:32.150Z,4.80
2019-04-03T18:59:02.426Z,4.80
2019-04-03T19:01:33.120Z,4.70
2019-04-03T19:04:05.160Z,4.70
2019-04-03T19:06:35.640Z,4.70
2019-04-03T19:09:09.980Z,4.70
2019-04-03T19:11:40.881Z,4.60
2019-04-03T19:14:11.425Z,4.60
2019-04-03T19:16:46.351Z,4.50
2019-04-03T19:19:12.795Z,4.50
2019-04-03T19:21:43.100Z,4.50
2019-04-03T19:24:13.890Z,4.40
2019-04-03T19:26:43.851Z,4.40
2019-04-03T19:29:15.081Z,4.40
2019-04-03T19:31:44.891Z,4.50
2019-04-03T19:34:19.517Z,4.50
2019-04-03T19:36:46.345Z,4.50
2019-04-03T19:39:16.173Z,4.70
2019-04-03T19:41:47.395Z,4.70
2019-04-03T19:44:18.047Z,4.70
2019-04-03T19:46:48.657Z,4.70
2019-04-03T19:49:18.670Z,4.70
2019-04-03T19:51:48.541Z,4.70
2019-04-03T19:54:18.499Z,4.70
2019-04-03T19:56:48.376Z,4.70
2019-04-03T19:59:18.538Z,4.60
2019-04-03T20:01:48.361Z,4.70
2019-04-03T20:04:17.964Z,4.80
2019-04-03T20:06:47.501Z,4.60
2019-04-03T20:09:17.827Z,4.50
2019-04-03T20:12:07.166Z,4.50
2019-04-03T20:14:37.348Z,4.60
2019-04-03T20:17:07.208Z,5.00
2019-04-03T20:19:36.887Z,5.00
2019-04-03T20:22:07.056Z,5.10
2019-04-03T20:24:37.285Z,4.90
2019-04-03T20:27:06.916Z,5.00
2019-04-03T20:29:36.628Z,5.10
2019-04-03T20:32:07.134Z,5.10
2019-04-03T20:34:37.406Z,5.30
2019-04-03T20:37:06.923Z,5.10
2019-04-03T20:39:36.597Z,5.00
2019-04-03T20:42:08.137Z,5.00
2019-04-03T20:44:38.989Z,4.90
2019-04-03T20:47:08.775Z,4.90
2019-04-03T20:49:38.337Z,5.00
2019-04-03T20:52:10.873Z,5.00
2019-04-03T20:54:39.589Z,4.90
2019-04-03T20:57:09.105Z,5.00
2019-04-03T20:59:38.977Z,5.00
2019-04-03T21:02:08.991Z,5.00
2019-04-03T21:04:38.970Z,5.00
2019-04-03T21:07:08.339Z,4.90
2019-04-03T21:09:38.189Z,4.90
2019-04-03T21:12:07.678Z,4.90
2019-04-03T21:14:37.547Z,4.90
2019-04-03T21:17:06.936Z,4.80
2019-04-03T21:19:36.655Z,4.70
2019-04-03T21:22:06.035Z,4.70
2019-04-03T21:24:36.031Z,4.60
2019-04-03T21:27:08.464Z,4.60
2019-04-03T21:29:36.703Z,4.70
2019-04-03T21:32:06.091Z,4.60
2019-04-03T21:34:36.060Z,4.70
2019-04-03T21:37:05.516Z,4.80
2019-04-03T21:39:35.231Z,5.00
2019-04-03T21:42:04.844Z,5.00
2019-04-03T21:44:34.238Z,5.10
2019-04-03T21:47:03.736Z,4.90
2019-04-03T21:49:33.085Z,4.70
2019-04-03T21:52:03.312Z,4.60
2019-04-03T21:54:32.816Z,4.70
2019-04-03T21:57:06.250Z,4.80
2019-04-03T21:59:33.894Z,4.80
2019-04-03T22:02:03.872Z,4.80
2019-04-03T22:04:33.348Z,4.70
2019-04-03T22:07:02.982Z,4.60
2019-04-03T22:09:32.363Z,4.60
2019-04-03T22:12:02.063Z,4.70
2019-04-03T22:14:31.512Z,4.60
2019-04-03T22:17:00.890Z,4.40
2019-04-03T22:19:30.267Z,4.40
2019-04-03T22:22:01.027Z,4.60
2019-04-03T22:24:30.762Z,4.40
2019-04-03T22:27:00.274Z,4.30
2019-04-03T22:29:29.923Z,4.20
2019-04-03T22:31:59.343Z,4.40
2019-04-03T22:34:30.003Z,4.50
2019-04-03T22:36:59.987Z,4.50
2019-04-03T22:39:29.358Z,4.90
2019-04-03T22:41:58.774Z,4.80
2019-04-03T22:44:28.148Z,4.70
2019-04-03T22:46:57.509Z,4.40
2019-04-03T22:49:26.922Z,4.30
2019-04-03T22:51:56.267Z,4.30
2019-04-03T22:54:25.673Z,4.40
2019-04-03T22:56:55.173Z,4.40
2019-04-03T22:59:24.622Z,4.30
2019-04-03T23:01:54.055Z,4.20
2019-04-03T23:04:23.419Z,4.20
2019-04-03T23:06:52.785Z,4.10
2019-04-03T23:09:24.693Z,4.40
2019-04-03T23:11:53.299Z,4.60
2019-04-03T23:14:22.718Z,4.70
2019-04-03T23:16:52.138Z,4.70
2019-04-03T23:19:21.726Z,4.60
2019-04-03T23:21:51.072Z,4.50
2019-04-03T23:24:20.477Z,4.50
2019-04-03T23:26:49.846Z,4.40
2019-04-03T23:29:19.341Z,4.30
2019-04-03T23:31:49.200Z,4.40
2019-04-03T23:34:19.037Z,4.50
2019-04-03T23:36:49.167Z,4.40
2019-04-03T23:39:18.605Z,4.30
2019-04-03T23:41:48.301Z,4.50
2019-04-03T23:44:17.705Z,4.40
2019-04-03T23:46:47.355Z,4.60
2019-04-03T23:49:18.214Z,4.70
2019-04-03T23:51:48.303Z,4.50
2019-04-03T23:54:17.693Z,4.40
2019-04-03T23:56:47.210Z,4.30
2019-04-03T23:59:16.559Z,4.20
